sensor_id;sensor_type;location;lat;lon;timestamp;pressure;altitude;pressure_sealevel;temperature;humidity
73671;BME280;61968;48.178;11.566;2024-01-30T00:02:17;97124.34;;;4.20;37.40
73671;BME280;61968;48.178;11.566;2024-01-30T00:04:43;97123.34;;;4.21;37.29
73671;BME280;61968;48.178;11.566;2024-01-30T00:07:11;97122.97;;;4.16;37.48
73671;BME280;61968;48.178;11.566;2024-01-30T00:09:38;97122.34;;;4.14;37.34
73671;BME280;61968;48.178;11.566;2024-01-30T00:12:05;97119.72;;;4.14;37.61
73671;BME280;61968;48.178;11.566;2024-01-30T00:14:32;97126.59;;;4.15;37.58
73671;BME280;61968;48.178;11.566;2024-01-30T00:16:59;97124.28;;;4.12;37.46
73671;BME280;61968;48.178;11.566;2024-01-30T00:19:25;97127.88;;;4.11;37.47
73671;BME280;61968;48.178;11.566;2024-01-30T00:21:52;97131.13;;;4.05;37.39
73671;BME280;61968;48.178;11.566;2024-01-30T00:24:19;97123.59;;;4.02;37.54
73671;BME280;61968;48.178;11.566;2024-01-30T00:26:46;97126.84;;;4.04;37.25
73671;BME280;61968;48.178;11.566;2024-01-30T00:29:12;97128.28;;;3.98;37.83
73671;BME280;61968;48.178;11.566;2024-01-30T00:31:44;97124.69;;;3.99;37.82
73671;BME280;61968;48.178;11.566;2024-01-30T00:34:11;97122.22;;;3.97;37.85
73671;BME280;61968;48.178;11.566;2024-01-30T00:36:37;97126.28;;;3.92;37.85
73671;BME280;61968;48.178;11.566;2024-01-30T00:39:03;97124.66;;;3.91;37.60
73671;BME280;61968;48.178;11.566;2024-01-30T00:41:32;97126.44;;;3.90;37.80
73671;BME280;61968;48.178;11.566;2024-01-30T00:43:59;97129.50;;;3.86;37.69
73671;BME280;61968;48.178;11.566;2024-01-30T00:46:26;97130.50;;;3.85;37.56
73671;BME280;61968;48.178;11.566;2024-01-30T00:48:52;97124.06;;;3.79;37.90
73671;BME280;61968;48.178;11.566;2024-01-30T00:51:19;97128.78;;;3.75;38.20
73671;BME280;61968;48.178;11.566;2024-01-30T00:53:45;97124.59;;;3.83;38.25
73671;BME280;61968;48.178;11.566;2024-01-30T00:56:12;97124.59;;;3.83;37.90
73671;BME280;61968;48.178;11.566;2024-01-30T00:58:40;97123.09;;;3.80;38.12
73671;BME280;61968;48.178;11.566;2024-01-30T01:01:06;97130.44;;;3.76;38.15
73671;BME280;61968;48.178;11.566;2024-01-30T01:03:33;97129.59;;;3.76;38.05
73671;BME280;61968;48.178;11.566;2024-01-30T01:06:00;97124.69;;;3.73;38.20
73671;BME280;61968;48.178;11.566;2024-01-30T01:08:26;97121.69;;;3.68;38.13
73671;BME280;61968;48.178;11.566;2024-01-30T01:10:52;97130.53;;;3.67;38.32
73671;BME280;61968;48.178;11.566;2024-01-30T01:13:19;97132.31;;;3.66;38.17
73671;BME280;61968;48.178;11.566;2024-01-30T01:15:47;97128.91;;;3.66;38.19
73671;BME280;61968;48.178;11.566;2024-01-30T01:18:13;97130.84;;;3.64;38.34
73671;BME280;61968;48.178;11.566;2024-01-30T01:20:40;97123.97;;;3.63;38.52
73671;BME280;61968;48.178;11.566;2024-01-30T01:23:06;97132.75;;;3.62;38.66
73671;BME280;61968;48.178;11.566;2024-01-30T01:25:32;97127.41;;;3.63;38.18
73671;BME280;61968;48.178;11.566;2024-01-30T01:27:59;97130.31;;;3.60;38.23
73671;BME280;61968;48.178;11.566;2024-01-30T01:30:26;97122.16;;;3.63;38.25
73671;BME280;61968;48.178;11.566;2024-01-30T01:32:55;97127.41;;;3.63;38.55
73671;BME280;61968;48.178;11.566;2024-01-30T01:35:25;97123.28;;;3.61;38.29
73671;BME280;61968;48.178;11.566;2024-01-30T01:37:51;97123.22;;;3.52;38.77
73671;BME280;61968;48.178;11.566;2024-01-30T01:40:21;97125.84;;;3.52;38.79
73671;BME280;61968;48.178;11.566;2024-01-30T01:42:49;97124.19;;;3.51;38.15
73671;BME280;61968;48.178;11.566;2024-01-30T01:45:16;97122.88;;;3.47;38.34
73671;BME280;61968;48.178;11.566;2024-01-30T01:47:42;97126.09;;;3.41;38.41
73671;BME280;61968;48.178;11.566;2024-01-30T01:50:12;97123.16;;;3.44;38.52
73671;BME280;61968;48.178;11.566;2024-01-30T01:52:40;97115.03;;;3.47;38.46
73671;BME280;61968;48.178;11.566;2024-01-30T01:55:08;97116.97;;;3.45;38.68
73671;BME280;61968;48.178;11.566;2024-01-30T01:57:35;97120.91;;;3.49;38.88
73671;BME280;61968;48.178;11.566;2024-01-30T02:00:01;97123.81;;;3.46;38.18
73671;BME280;61968;48.178;11.566;2024-01-30T02:02:30;97121.00;;;3.40;38.33
73671;BME280;61968;48.178;11.566;2024-01-30T02:04:57;97130.63;;;3.39;38.88
73671;BME280;61968;48.178;11.566;2024-01-30T02:07:25;97123.91;;;3.37;38.70
73671;BME280;61968;48.178;11.566;2024-01-30T02:09:51;97127.34;;;3.37;38.53
73671;BME280;61968;48.178;11.566;2024-01-30T02:12:18;97123.91;;;3.37;38.64
73671;BME280;61968;48.178;11.566;2024-01-30T02:14:44;97112.63;;;3.36;38.85
73671;BME280;61968;48.178;11.566;2024-01-30T02:17:11;97116.06;;;3.37;38.67
73671;BME280;61968;48.178;11.566;2024-01-30T02:19:37;97125.31;;;3.31;38.68
73671;BME280;61968;48.178;11.566;2024-01-30T02:22:06;97127.00;;;3.32;38.67
73671;BME280;61968;48.178;11.566;2024-01-30T02:24:33;97129.91;;;3.29;38.42
73671;BME280;61968;48.178;11.566;2024-01-30T02:26:59;97133.47;;;3.28;38.56
73671;BME280;61968;48.178;11.566;2024-01-30T02:29:26;97127.28;;;3.29;38.83
73671;BME280;61968;48.178;11.566;2024-01-30T02:31:52;97127.56;;;3.26;38.51
73671;BME280;61968;48.178;11.566;2024-01-30T02:34:19;97123.44;;;3.23;38.74
73671;BME280;61968;48.178;11.566;2024-01-30T02:36:46;97126.72;;;3.25;38.82
73671;BME280;61968;48.178;11.566;2024-01-30T02:39:14;97120.97;;;3.22;38.59
73671;BME280;61968;48.178;11.566;2024-01-30T02:41:40;97123.75;;;3.20;38.63
73671;BME280;61968;48.178;11.566;2024-01-30T02:44:07;97127.31;;;3.19;38.62
73671;BME280;61968;48.178;11.566;2024-01-30T02:46:33;97120.31;;;3.20;38.47
73671;BME280;61968;48.178;11.566;2024-01-30T02:49:00;97119.13;;;3.14;38.78
73671;BME280;61968;48.178;11.566;2024-01-30T02:51:26;97118.81;;;3.17;39.23
73671;BME280;61968;48.178;11.566;2024-01-30T02:53:53;97110.81;;;3.19;38.91
73671;BME280;61968;48.178;11.566;2024-01-30T02:56:20;97115.38;;;3.17;38.76
73671;BME280;61968;48.178;11.566;2024-01-30T02:58:47;97111.09;;;3.16;39.20
73671;BME280;61968;48.178;11.566;2024-01-30T03:01:13;97109.47;;;3.15;39.17
73671;BME280;61968;48.178;11.566;2024-01-30T03:03:40;97103.56;;;3.13;39.23
73671;BME280;61968;48.178;11.566;2024-01-30T03:06:07;97102.44;;;3.15;39.33
73671;BME280;61968;48.178;11.566;2024-01-30T03:08:34;97103.34;;;3.24;38.75
73671;BME280;61968;48.178;11.566;2024-01-30T03:11:01;97090.41;;;3.22;38.62
73671;BME280;61968;48.178;11.566;2024-01-30T03:13:29;97092.22;;;3.22;39.18
73671;BME280;61968;48.178;11.566;2024-01-30T03:15:56;97098.13;;;3.24;38.66
73671;BME280;61968;48.178;11.566;2024-01-30T03:18:22;97099.25;;;3.21;38.78
73671;BME280;61968;48.178;11.566;2024-01-30T03:20:48;97095.06;;;3.28;38.57
73671;BME280;61968;48.178;11.566;2024-01-30T03:23:15;97096.19;;;3.26;38.57
73671;BME280;61968;48.178;11.566;2024-01-30T03:25:42;97101.72;;;3.23;38.97
73671;BME280;61968;48.178;11.566;2024-01-30T03:28:08;97102.03;;;3.20;39.15
73671;BME280;61968;48.178;11.566;2024-01-30T03:30:36;97093.88;;;3.23;38.41
73671;BME280;61968;48.178;11.566;2024-01-30T03:33:03;97098.72;;;3.18;38.83
73671;BME280;61968;48.178;11.566;2024-01-30T03:35:29;97102.03;;;3.20;38.97
73671;BME280;61968;48.178;11.566;2024-01-30T03:37:56;97088.94;;;3.20;39.17
73671;BME280;61968;48.178;11.566;2024-01-30T03:40:22;97100.34;;;3.19;39.28
73671;BME280;61968;48.178;11.566;2024-01-30T03:42:49;97093.94;;;3.13;38.99
73671;BME280;61968;48.178;11.566;2024-01-30T03:45:15;97089.84;;;3.11;39.43
73671;BME280;61968;48.178;11.566;2024-01-30T03:47:46;97095.22;;;3.09;38.99
73671;BME280;61968;48.178;11.566;2024-01-30T03:50:12;97085.28;;;3.13;39.22
73671;BME280;61968;48.178;11.566;2024-01-30T03:52:38;97078.13;;;3.15;39.17
73671;BME280;61968;48.178;11.566;2024-01-30T03:55:05;97082.38;;;3.16;38.54
73671;BME280;61968;48.178;11.566;2024-01-30T03:57:32;97075.63;;;3.13;38.59
73671;BME280;61968;48.178;11.566;2024-01-30T03:59:58;97093.28;;;3.11;38.78
73671;BME280;61968;48.178;11.566;2024-01-30T04:02:25;97087.25;;;3.11;38.62
73671;BME280;61968;48.178;11.566;2024-01-30T04:04:52;97086.56;;;3.08;39.00
73671;BME280;61968;48.178;11.566;2024-01-30T04:07:19;97089.16;;;3.08;38.66
73671;BME280;61968;48.178;11.566;2024-01-30T04:09:45;97091.47;;;3.12;39.04
73671;BME280;61968;48.178;11.566;2024-01-30T04:12:12;97094.09;;;3.12;38.50
73671;BME280;61968;48.178;11.566;2024-01-30T04:14:39;97094.91;;;3.12;39.05
73671;BME280;61968;48.178;11.566;2024-01-30T04:17:05;97089.38;;;3.15;38.76
73671;BME280;61968;48.178;11.566;2024-01-30T04:19:32;97091.47;;;3.12;38.60
73671;BME280;61968;48.178;11.566;2024-01-30T04:21:59;97089.56;;;3.14;38.67
73671;BME280;61968;48.178;11.566;2024-01-30T04:24:26;97095.44;;;3.16;39.05
73671;BME280;61968;48.178;11.566;2024-01-30T04:26:52;97098.81;;;3.08;38.74
73671;BME280;61968;48.178;11.566;2024-01-30T04:29:19;97092.72;;;3.07;38.96
73671;BME280;61968;48.178;11.566;2024-01-30T04:31:45;97097.69;;;3.11;38.75
73671;BME280;61968;48.178;11.566;2024-01-30T04:34:12;97095.22;;;3.09;38.60
73671;BME280;61968;48.178;11.566;2024-01-30T04:36:38;97088.78;;;3.03;39.02
73671;BME280;61968;48.178;11.566;2024-01-30T04:39:06;97093.19;;;3.03;38.88
73671;BME280;61968;48.178;11.566;2024-01-30T04:41:33;97087.50;;;3.07;38.63
73671;BME280;61968;48.178;11.566;2024-01-30T04:44:00;97090.81;;;3.09;38.36
73671;BME280;61968;48.178;11.566;2024-01-30T04:46:26;97095.50;;;3.06;38.75
73671;BME280;61968;48.178;11.566;2024-01-30T04:48:53;97090.28;;;3.06;38.76
73671;BME280;61968;48.178;11.566;2024-01-30T04:51:19;97090.41;;;3.04;39.11
73671;BME280;61968;48.178;11.566;2024-01-30T04:53:46;97092.91;;;3.06;38.35
73671;BME280;61968;48.178;11.566;2024-01-30T04:56:14;97092.72;;;3.07;39.07
73671;BME280;61968;48.178;11.566;2024-01-30T04:58:40;97093.03;;;3.04;38.58
73671;BME280;61968;48.178;11.566;2024-01-30T05:01:06;97092.50;;;3.01;38.85
73671;BME280;61968;48.178;11.566;2024-01-30T05:03:33;97096.78;;;3.02;38.63
73671;BME280;61968;48.178;11.566;2024-01-30T05:06:00;97096.50;;;4.19;51.44
73671;BME280;61968;48.178;11.566;2024-01-30T05:08:26;97098.94;;;5.22;48.68
73671;BME280;61968;48.178;11.566;2024-01-30T05:10:53;97103.03;;;5.81;50.10
73671;BME280;61968;48.178;11.566;2024-01-30T05:13:21;97099.25;;;6.56;46.24
73671;BME280;61968;48.178;11.566;2024-01-30T05:15:47;97098.00;;;6.44;36.68
73671;BME280;61968;48.178;11.566;2024-01-30T05:18:14;97096.34;;;5.63;35.37
73671;BME280;61968;48.178;11.566;2024-01-30T05:20:40;97099.94;;;5.04;35.82
73671;BME280;61968;48.178;11.566;2024-01-30T05:23:06;97101.59;;;4.63;36.70
73671;BME280;61968;48.178;11.566;2024-01-30T05:25:33;97101.97;;;4.34;36.79
73671;BME280;61968;48.178;11.566;2024-01-30T05:27:59;97102.16;;;4.06;36.75
73671;BME280;61968;48.178;11.566;2024-01-30T05:30:27;97104.69;;;3.90;37.03
73671;BME280;61968;48.178;11.566;2024-01-30T05:32:53;97105.25;;;3.75;37.52
73671;BME280;61968;48.178;11.566;2024-01-30T05:35:20;97102.88;;;3.64;37.75
73671;BME280;61968;48.178;11.566;2024-01-30T05:37:48;97106.25;;;3.57;37.98
73671;BME280;61968;48.178;11.566;2024-01-30T05:40:15;97100.44;;;3.45;37.70
73671;BME280;61968;48.178;11.566;2024-01-30T05:42:41;97104.41;;;3.31;38.30
73671;BME280;61968;48.178;11.566;2024-01-30T05:45:08;97110.09;;;3.26;38.23
73671;BME280;61968;48.178;11.566;2024-01-30T05:47:36;97118.34;;;3.22;38.05
73671;BME280;61968;48.178;11.566;2024-01-30T05:50:03;97111.09;;;3.16;38.30
73671;BME280;61968;48.178;11.566;2024-01-30T05:52:29;97113.88;;;3.14;38.64
73671;BME280;61968;48.178;11.566;2024-01-30T05:54:56;97115.81;;;3.12;38.29
73671;BME280;61968;48.178;11.566;2024-01-30T05:57:22;97118.88;;;3.07;38.44
73671;BME280;61968;48.178;11.566;2024-01-30T05:59:49;97120.81;;;3.05;38.40
73671;BME280;61968;48.178;11.566;2024-01-30T06:02:17;97119.16;;;3.04;38.39
73671;BME280;61968;48.178;11.566;2024-01-30T06:04:44;97121.41;;;2.99;38.44
73671;BME280;61968;48.178;11.566;2024-01-30T06:07:11;97122.00;;;2.93;39.22
73671;BME280;61968;48.178;11.566;2024-01-30T06:09:37;97123.94;;;2.91;38.88
73671;BME280;61968;48.178;11.566;2024-01-30T06:12:05;97112.97;;;2.88;38.97
73671;BME280;61968;48.178;11.566;2024-01-30T06:14:31;97119.81;;;2.89;39.35
73671;BME280;61968;48.178;11.566;2024-01-30T06:16:58;97127.97;;;2.85;39.51
73671;BME280;61968;48.178;11.566;2024-01-30T06:19:24;97126.47;;;2.83;38.91
73671;BME280;61968;48.178;11.566;2024-01-30T06:21:52;97121.81;;;2.77;38.88
73671;BME280;61968;48.178;11.566;2024-01-30T06:24:18;97116.75;;;2.75;39.10
73671;BME280;61968;48.178;11.566;2024-01-30T06:26:45;97117.75;;;2.74;39.15
73671;BME280;61968;48.178;11.566;2024-01-30T06:29:12;97119.38;;;2.75;39.73
73671;BME280;61968;48.178;11.566;2024-01-30T06:31:40;97122.97;;;2.74;39.19
73671;BME280;61968;48.178;11.566;2024-01-30T06:34:07;97124.72;;;2.74;39.47
73671;BME280;61968;48.178;11.566;2024-01-30T06:36:33;97130.63;;;2.76;39.59
73671;BME280;61968;48.178;11.566;2024-01-30T06:39:02;97134.88;;;2.77;39.34
73671;BME280;61968;48.178;11.566;2024-01-30T06:41:28;97137.38;;;2.78;39.47
73671;BME280;61968;48.178;11.566;2024-01-30T06:43:55;97135.72;;;2.77;39.41
73671;BME280;61968;48.178;11.566;2024-01-30T06:46:21;97135.34;;;2.72;39.69
73671;BME280;61968;48.178;11.566;2024-01-30T06:48:48;97137.50;;;2.77;38.97
73671;BME280;61968;48.178;11.566;2024-01-30T06:51:14;97141.91;;;2.76;40.00
73671;BME280;61968;48.178;11.566;2024-01-30T06:53:40;97141.78;;;2.78;39.74
73671;BME280;61968;48.178;11.566;2024-01-30T06:56:08;97146.00;;;2.79;39.58
73671;BME280;61968;48.178;11.566;2024-01-30T06:58:35;97149.31;;;2.81;39.62
73671;BME280;61968;48.178;11.566;2024-01-30T07:01:01;97151.25;;;2.79;39.86
73671;BME280;61968;48.178;11.566;2024-01-30T07:03:27;97146.69;;;2.81;39.81
73671;BME280;61968;48.178;11.566;2024-01-30T07:05:54;97147.53;;;2.81;39.84
73671;BME280;61968;48.178;11.566;2024-01-30T07:08:20;97142.44;;;2.80;39.46
73671;BME280;61968;48.178;11.566;2024-01-30T07:10:47;97145.19;;;2.78;39.67
73671;BME280;61968;48.178;11.566;2024-01-30T07:13:15;97142.44;;;2.80;39.13
73671;BME280;61968;48.178;11.566;2024-01-30T07:15:42;97141.31;;;2.82;39.38
73671;BME280;61968;48.178;11.566;2024-01-30T07:18:09;97140.22;;;2.85;39.43
73671;BME280;61968;48.178;11.566;2024-01-30T07:20:36;97146.41;;;2.84;39.81
73671;BME280;61968;48.178;11.566;2024-01-30T07:23:02;97146.25;;;2.85;39.64
73671;BME280;61968;48.178;11.566;2024-01-30T07:25:29;97154.91;;;2.86;39.63
73671;BME280;61968;48.178;11.566;2024-01-30T07:27:55;97150.66;;;2.85;39.41
73671;BME280;61968;48.178;11.566;2024-01-30T07:30:24;97151.47;;;2.85;39.91
73671;BME280;61968;48.178;11.566;2024-01-30T07:32:50;97155.59;;;2.88;40.09
73671;BME280;61968;48.178;11.566;2024-01-30T07:35:16;97153.66;;;2.90;40.12
73671;BME280;61968;48.178;11.566;2024-01-30T07:37:43;97162.72;;;2.96;39.44
73671;BME280;61968;48.178;11.566;2024-01-30T07:40:10;97158.59;;;2.93;39.73
73671;BME280;61968;48.178;11.566;2024-01-30T07:42:36;97159.78;;;2.99;39.72
73671;BME280;61968;48.178;11.566;2024-01-30T07:45:03;97159.63;;;3.00;39.45
73671;BME280;61968;48.178;11.566;2024-01-30T07:47:31;97156.59;;;3.05;39.32
73671;BME280;61968;48.178;11.566;2024-01-30T07:49:58;97162.34;;;3.08;39.94
73671;BME280;61968;48.178;11.566;2024-01-30T07:52:24;97159.13;;;3.15;39.19
73671;BME280;61968;48.178;11.566;2024-01-30T07:54:51;97168.00;;;3.22;38.59
73671;BME280;61968;48.178;11.566;2024-01-30T07:57:18;97158.38;;;3.32;38.61
73671;BME280;61968;48.178;11.566;2024-01-30T07:59:45;97161.50;;;3.36;37.86
73671;BME280;61968;48.178;11.566;2024-01-30T08:02:11;97163.34;;;3.43;37.88
73671;BME280;61968;48.178;11.566;2024-01-30T08:04:39;97165.66;;;3.46;37.47
73671;BME280;61968;48.178;11.566;2024-01-30T08:07:06;97166.34;;;3.48;37.87
73671;BME280;61968;48.178;11.566;2024-01-30T08:09:32;97164.25;;;3.52;37.89
73671;BME280;61968;48.178;11.566;2024-01-30T08:11:59;97174.25;;;3.57;37.43
73671;BME280;61968;48.178;11.566;2024-01-30T08:14:25;97176.41;;;3.61;37.51
73671;BME280;61968;48.178;11.566;2024-01-30T08:16:52;97174.31;;;3.65;37.82
73671;BME280;61968;48.178;11.566;2024-01-30T08:19:18;97175.00;;;3.67;37.03
73671;BME280;61968;48.178;11.566;2024-01-30T08:21:46;97167.66;;;3.70;36.63
73671;BME280;61968;48.178;11.566;2024-01-30T08:24:13;97175.72;;;3.77;36.92
73671;BME280;61968;48.178;11.566;2024-01-30T08:26:39;97174.16;;;3.84;36.40
73671;BME280;61968;48.178;11.566;2024-01-30T08:29:06;97177.16;;;3.89;36.27
73671;BME280;61968;48.178;11.566;2024-01-30T08:31:32;97173.75;;;3.97;35.74
73671;BME280;61968;48.178;11.566;2024-01-30T08:33:59;97165.59;;;4.00;35.64
73671;BME280;61968;48.178;11.566;2024-01-30T08:36:25;97173.94;;;4.04;35.68
73671;BME280;61968;48.178;11.566;2024-01-30T08:38:53;97168.28;;;4.08;35.45
73671;BME280;61968;48.178;11.566;2024-01-30T08:41:19;97172.06;;;4.14;35.28
73671;BME280;61968;48.178;11.566;2024-01-30T08:43:46;97161.94;;;4.19;35.25
73671;BME280;61968;48.178;11.566;2024-01-30T08:46:12;97160.69;;;4.23;34.96
73671;BME280;61968;48.178;11.566;2024-01-30T08:48:39;97167.25;;;4.27;35.20
73671;BME280;61968;48.178;11.566;2024-01-30T08:51:05;97163.19;;;4.33;34.28
73671;BME280;61968;48.178;11.566;2024-01-30T08:53:33;97163.84;;;4.35;34.39
73671;BME280;61968;48.178;11.566;2024-01-30T08:56:01;97166.00;;;4.39;34.42
73671;BME280;61968;48.178;11.566;2024-01-30T08:58:28;97162.91;;;4.44;34.48
73671;BME280;61968;48.178;11.566;2024-01-30T09:00:54;97165.72;;;4.51;34.17
73671;BME280;61968;48.178;11.566;2024-01-30T09:03:21;97168.03;;;4.54;34.87
73671;BME280;61968;48.178;11.566;2024-01-30T09:05:47;97174.13;;;4.62;34.49
73671;BME280;61968;48.178;11.566;2024-01-30T09:08:13;97172.69;;;4.68;34.72
73671;BME280;61968;48.178;11.566;2024-01-30T09:10:40;97179.75;;;4.76;34.87
73671;BME280;61968;48.178;11.566;2024-01-30T09:13:08;97181.72;;;4.82;34.78
73671;BME280;61968;48.178;11.566;2024-01-30T09:15:34;97180.59;;;4.84;34.84
73671;BME280;61968;48.178;11.566;2024-01-30T09:18:01;97183.75;;;4.88;34.78
73671;BME280;61968;48.178;11.566;2024-01-30T09:20:27;97188.38;;;4.94;35.38
73671;BME280;61968;48.178;11.566;2024-01-30T09:22:54;97189.72;;;4.98;36.01
73671;BME280;61968;48.178;11.566;2024-01-30T09:25:20;97191.16;;;5.01;36.21
73671;BME280;61968;48.178;11.566;2024-01-30T09:27:46;97186.28;;;5.06;35.81
73671;BME280;61968;48.178;11.566;2024-01-30T09:30:15;97195.44;;;5.10;36.23
73671;BME280;61968;48.178;11.566;2024-01-30T09:32:42;97195.44;;;5.10;36.29
73671;BME280;61968;48.178;11.566;2024-01-30T09:35:09;97197.75;;;5.13;36.02
73671;BME280;61968;48.178;11.566;2024-01-30T09:37:35;97191.22;;;5.17;36.27
73671;BME280;61968;48.178;11.566;2024-01-30T09:40:01;97185.16;;;5.25;36.26
73671;BME280;61968;48.178;11.566;2024-01-30T09:42:33;97190.28;;;5.34;36.01
73671;BME280;61968;48.178;11.566;2024-01-30T09:45:01;97191.94;;;5.44;35.63
73671;BME280;61968;48.178;11.566;2024-01-30T09:47:32;97198.16;;;5.51;35.70
73671;BME280;61968;48.178;11.566;2024-01-30T09:49:59;97196.22;;;5.53;35.55
73671;BME280;61968;48.178;11.566;2024-01-30T09:52:28;97193.91;;;5.58;35.35
73671;BME280;61968;48.178;11.566;2024-01-30T09:54:55;97195.88;;;5.64;35.30
73671;BME280;61968;48.178;11.566;2024-01-30T09:57:22;97195.22;;;5.70;35.70
73671;BME280;61968;48.178;11.566;2024-01-30T09:59:49;97193.59;;;5.77;35.13
73671;BME280;61968;48.178;11.566;2024-01-30T10:02:17;97192.28;;;5.81;35.10
73671;BME280;61968;48.178;11.566;2024-01-30T10:04:47;97188.00;;;5.89;35.41
73671;BME280;61968;48.178;11.566;2024-01-30T10:07:14;97189.81;;;5.96;35.02
73671;BME280;61968;48.178;11.566;2024-01-30T10:09:41;97191.94;;;6.01;35.53
73671;BME280;61968;48.178;11.566;2024-01-30T10:12:08;97189.31;;;6.09;35.36
73671;BME280;61968;48.178;11.566;2024-01-30T10:14:37;97188.00;;;6.13;35.25
73671;BME280;61968;48.178;11.566;2024-01-30T10:17:04;97183.56;;;6.14;34.13
73671;BME280;61968;48.178;11.566;2024-01-30T10:19:31;97185.22;;;6.15;35.12
73671;BME280;61968;48.178;11.566;2024-01-30T10:21:59;97186.34;;;6.20;35.13
73671;BME280;61968;48.178;11.566;2024-01-30T10:24:26;97185.38;;;6.29;34.44
73671;BME280;61968;48.178;11.566;2024-01-30T10:26:54;97184.72;;;6.36;34.66
73671;BME280;61968;48.178;11.566;2024-01-30T10:29:21;97178.78;;;6.42;34.39
73671;BME280;61968;48.178;11.566;2024-01-30T10:31:57;97179.44;;;6.44;33.89
73671;BME280;61968;48.178;11.566;2024-01-30T10:34:23;97176.81;;;6.44;33.60
73671;BME280;61968;48.178;11.566;2024-01-30T10:36:56;97164.66;;;6.43;32.98
73671;BME280;61968;48.178;11.566;2024-01-30T10:39:29;97168.88;;;6.52;33.79
73671;BME280;61968;48.178;11.566;2024-01-30T10:41:56;97162.00;;;6.59;33.80
73671;BME280;61968;48.178;11.566;2024-01-30T10:44:27;97164.28;;;6.62;33.38
73671;BME280;61968;48.178;11.566;2024-01-30T10:47:00;97156.34;;;6.70;33.60
73671;BME280;61968;48.178;11.566;2024-01-30T10:49:29;97155.31;;;6.80;33.75
73671;BME280;61968;48.178;11.566;2024-01-30T10:51:57;97154.16;;;6.82;32.87
73671;BME280;61968;48.178;11.566;2024-01-30T10:54:25;97147.41;;;6.88;32.14
73671;BME280;61968;48.178;11.566;2024-01-30T10:56:54;97133.22;;;6.97;29.95
73671;BME280;61968;48.178;11.566;2024-01-30T10:59:23;97132.72;;;7.02;28.53
73671;BME280;61968;48.178;11.566;2024-01-30T11:01:51;97141.53;;;7.09;29.94
73671;BME280;61968;48.178;11.566;2024-01-30T11:04:18;97138.09;;;7.08;28.97
73671;BME280;61968;48.178;11.566;2024-01-30T11:06:49;97129.19;;;7.09;28.43
73671;BME280;61968;48.178;11.566;2024-01-30T11:09:17;97130.56;;;7.28;28.71
73671;BME280;61968;48.178;11.566;2024-01-30T11:11:49;97128.69;;;7.37;28.90
73671;BME280;61968;48.178;11.566;2024-01-30T11:14:23;97124.06;;;7.39;27.94
73671;BME280;61968;48.178;11.566;2024-01-30T11:16:50;97132.25;;;7.44;27.99
73671;BME280;61968;48.178;11.566;2024-01-30T11:19:22;97126.69;;;7.39;28.39
73671;BME280;61968;48.178;11.566;2024-01-30T11:21:50;97121.38;;;7.47;28.18
73671;BME280;61968;48.178;11.566;2024-01-30T11:24:19;97124.72;;;7.41;28.33
73671;BME280;61968;48.178;11.566;2024-01-30T11:26:48;97121.38;;;7.47;28.36
73671;BME280;61968;48.178;11.566;2024-01-30T11:29:14;97110.75;;;7.63;28.85
73671;BME280;61968;48.178;11.566;2024-01-30T11:31:52;97109.16;;;7.77;28.08
73671;BME280;61968;48.178;11.566;2024-01-30T11:34:20;97109.91;;;7.86;28.59
73671;BME280;61968;48.178;11.566;2024-01-30T11:36:51;97103.00;;;8.00;29.16
73671;BME280;61968;48.178;11.566;2024-01-30T11:39:20;97109.66;;;8.10;29.04
73671;BME280;61968;48.178;11.566;2024-01-30T11:41:47;97093.75;;;8.19;28.74
73671;BME280;61968;48.178;11.566;2024-01-30T11:44:17;97096.28;;;8.27;29.02
73671;BME280;61968;48.178;11.566;2024-01-30T11:46:43;97096.75;;;8.30;28.57
73671;BME280;61968;48.178;11.566;2024-01-30T11:49:11;97091.59;;;8.37;29.05
73671;BME280;61968;48.178;11.566;2024-01-30T11:51:37;97096.66;;;8.39;27.50
73671;BME280;61968;48.178;11.566;2024-01-30T11:54:04;97092.13;;;8.47;27.76
73671;BME280;61968;48.178;11.566;2024-01-30T11:56:30;97090.56;;;8.53;28.27
73671;BME280;61968;48.178;11.566;2024-01-30T11:58:57;97092.56;;;8.51;27.76
73671;BME280;61968;48.178;11.566;2024-01-30T12:01:25;97088.75;;;8.53;27.79
73671;BME280;61968;48.178;11.566;2024-01-30T12:03:52;97088.19;;;8.58;28.61
73671;BME280;61968;48.178;11.566;2024-01-30T12:06:20;97078.09;;;8.62;27.95
73671;BME280;61968;48.178;11.566;2024-01-30T12:08:56;97077.91;;;8.63;27.74
73671;BME280;61968;48.178;11.566;2024-01-30T12:11:23;97082.66;;;8.68;28.58
73671;BME280;61968;48.178;11.566;2024-01-30T12:13:49;97071.91;;;8.69;28.02
73671;BME280;61968;48.178;11.566;2024-01-30T12:16:16;97080.38;;;8.79;27.96
73671;BME280;61968;48.178;11.566;2024-01-30T12:18:42;97075.97;;;8.87;27.92
73671;BME280;61968;48.178;11.566;2024-01-30T12:21:08;97071.56;;;8.94;27.90
73671;BME280;61968;48.178;11.566;2024-01-30T12:23:36;97065.28;;;9.10;27.63
73671;BME280;61968;48.178;11.566;2024-01-30T12:26:04;97063.81;;;9.29;28.31
73671;BME280;61968;48.178;11.566;2024-01-30T12:28:32;97066.38;;;9.43;27.71
73671;BME280;61968;48.178;11.566;2024-01-30T12:31:01;97058.13;;;9.53;27.21
73671;BME280;61968;48.178;11.566;2024-01-30T12:33:28;97056.59;;;9.65;27.20
73671;BME280;61968;48.178;11.566;2024-01-30T12:35:55;97051.25;;;9.80;26.67
73671;BME280;61968;48.178;11.566;2024-01-30T12:38:22;97045.59;;;9.83;25.19
73671;BME280;61968;48.178;11.566;2024-01-30T12:40:52;97044.44;;;9.92;26.66
73671;BME280;61968;48.178;11.566;2024-01-30T12:43:20;97043.91;;;10.04;26.05
73671;BME280;61968;48.178;11.566;2024-01-30T12:45:47;97046.94;;;10.01;24.99
73671;BME280;61968;48.178;11.566;2024-01-30T12:48:13;97046.56;;;10.10;24.52
73671;BME280;61968;48.178;11.566;2024-01-30T12:50:41;97044.53;;;10.12;25.05
73671;BME280;61968;48.178;11.566;2024-01-30T12:53:07;97043.56;;;10.20;25.78
73671;BME280;61968;48.178;11.566;2024-01-30T12:55:34;97045.44;;;10.26;25.01
73671;BME280;61968;48.178;11.566;2024-01-30T12:58:02;97043.03;;;10.31;24.37
73671;BME280;61968;48.178;11.566;2024-01-30T13:00:29;97042.66;;;10.41;25.20